createdAt,value
2022-09-24T00:01:55.270Z,97594.36
2022-09-24T00:04:27.447Z,97591.55
2022-09-24T00:06:55.305Z,97593.13
2022-09-24T00:09:23.777Z,97591.16
2022-09-24T00:11:54.915Z,97589.46
2022-09-24T00:14:23.318Z,97589.56
2022-09-24T00:16:51.686Z,97586.15
2022-09-24T00:19:19.851Z,97591.79
2022-09-24T00:21:47.616Z,97589.72
2022-09-24T00:24:35.675Z,97592.38
2022-09-24T00:27:05.869Z,97590.50
2022-09-24T00:29:35.825Z,97588.38
2022-09-24T00:32:05.395Z,97584.13
2022-09-24T00:34:33.816Z,97579.79
2022-09-24T00:37:01.557Z,97582.71
2022-09-24T00:39:29.810Z,97582.23
2022-09-24T00:41:57.583Z,97579.02
2022-09-24T00:44:54.704Z,97576.98
2022-09-24T00:47:31.719Z,97567.63
2022-09-24T00:50:16.723Z,97564.13
2022-09-24T00:52:56.648Z,97567.23
2022-09-24T00:55:26.417Z,97562.70
2022-09-24T00:58:01.785Z,97557.82
2022-09-24T01:00:31.640Z,97557.28
2022-09-24T01:03:13.320Z,97554.93
2022-09-24T01:05:41.700Z,97552.31
2022-09-24T01:08:16.391Z,97549.93
2022-09-24T01:11:24.038Z,97547.49
2022-09-24T01:14:11.541Z,97548.54
2022-09-24T01:17:08.590Z,97548.93
2022-09-24T01:19:55.113Z,97548.34
2022-09-24T01:22:27.237Z,97546.48
2022-09-24T01:25:02.109Z,97542.45
2022-09-24T01:27:52.865Z,97544.73
2022-09-24T01:30:20.745Z,97544.15
2022-09-24T01:32:53.887Z,97543.34
2022-09-24T01:35:27.518Z,97548.84
2022-09-24T01:38:00.840Z,97550.15
2022-09-24T01:40:31.651Z,97548.16
2022-09-24T01:43:03.112Z,97548.24
2022-09-24T01:45:33.172Z,97547.59
2022-09-24T01:48:01.710Z,97548.09
2022-09-24T01:50:36.346Z,97552.15
2022-09-24T01:53:30.365Z,97553.79
2022-09-24T01:56:07.600Z,97552.55
2022-09-24T01:58:46.267Z,97554.04
2022-09-24T02:01:20.064Z,97556.52
2022-09-24T02:03:57.041Z,97556.88
2022-09-24T02:06:33.388Z,97559.76
2022-09-24T02:09:02.169Z,97561.84
2022-09-24T02:11:33.913Z,97563.23
2022-09-24T02:14:15.029Z,97563.52
2022-09-24T02:16:52.091Z,97563.13
2022-09-24T02:19:27.339Z,97562.45
2022-09-24T02:21:55.075Z,97563.31
2022-09-24T02:24:45.823Z,97565.61
2022-09-24T02:27:13.955Z,97566.34
2022-09-24T02:29:44.644Z,97567.23
2022-09-24T02:32:18.991Z,97565.59
2022-09-24T02:34:52.811Z,97563.39
2022-09-24T02:37:24.244Z,97558.41
2022-09-24T02:39:52.729Z,97557.20
2022-09-24T02:42:22.659Z,97558.56
2022-09-24T02:44:52.347Z,97550.15
2022-09-24T02:47:19.945Z,97547.20
2022-09-24T02:49:48.192Z,97546.11
2022-09-24T02:52:16.770Z,97547.36
2022-09-24T02:54:44.854Z,97544.44
2022-09-24T02:57:14.397Z,97542.45
2022-09-24T02:59:43.685Z,97543.36
2022-09-24T03:02:12.504Z,97546.84
2022-09-24T03:04:41.446Z,97550.64
2022-09-24T03:07:11.138Z,97556.55
2022-09-24T03:09:40.913Z,97557.25
2022-09-24T03:12:10.636Z,97556.19
2022-09-24T03:14:38.945Z,97556.66
2022-09-24T03:17:06.868Z,97557.20
2022-09-24T03:19:35.901Z,97562.47
2022-09-24T03:22:03.661Z,97562.13
2022-09-24T03:24:31.828Z,97564.02
2022-09-24T03:27:00.337Z,97565.13
2022-09-24T03:29:48.261Z,97567.27
2022-09-24T03:32:16.110Z,97571.98
2022-09-24T03:34:44.514Z,97572.27
2022-09-24T03:37:12.162Z,97571.14
2022-09-24T03:39:40.329Z,97572.73
2022-09-24T03:42:09.230Z,97571.02
2022-09-24T03:44:37.208Z,97573.91
2022-09-24T03:47:05.380Z,97571.26
2022-09-24T03:49:33.054Z,97573.44
2022-09-24T03:52:00.606Z,97572.65
2022-09-24T03:54:28.355Z,97573.34
2022-09-24T03:56:56.414Z,97578.25
2022-09-24T03:59:24.406Z,97579.27
2022-09-24T04:01:52.229Z,97579.58
2022-09-24T04:04:20.533Z,97584.66
2022-09-24T04:06:48.207Z,97585.91
2022-09-24T04:09:16.269Z,97589.29
2022-09-24T04:11:44.539Z,97592.20
2022-09-24T04:14:12.064Z,97595.08
2022-09-24T04:16:40.488Z,97600.67
2022-09-24T04:19:08.142Z,97599.70
2022-09-24T04:21:35.483Z,97601.46
2022-09-24T04:24:03.352Z,97600.29
2022-09-24T04:26:32.220Z,97600.13
2022-09-24T04:28:59.915Z,97601.56
2022-09-24T04:31:28.564Z,97601.17
2022-09-24T04:33:56.120Z,97605.30
2022-09-24T04:36:24.536Z,97602.30
2022-09-24T04:38:52.188Z,97600.15
2022-09-24T04:41:20.257Z,97601.60
2022-09-24T04:43:48.130Z,97602.94
2022-09-24T04:46:17.753Z,97606.52
2022-09-24T04:48:45.906Z,97609.61
2022-09-24T04:51:13.780Z,97608.71
2022-09-24T04:53:41.168Z,97613.02
2022-09-24T04:56:11.860Z,97614.07
2022-09-24T04:58:39.526Z,97612.39
2022-09-24T05:01:07.491Z,97613.27
2022-09-24T05:03:35.252Z,97616.33
2022-09-24T05:06:03.314Z,97617.48
2022-09-24T05:08:30.576Z,97619.80
2022-09-24T05:10:57.927Z,97619.13
2022-09-24T05:13:25.182Z,97623.47
2022-09-24T05:15:52.827Z,97627.12
2022-09-24T05:18:20.403Z,97627.98
2022-09-24T05:20:47.649Z,97629.02
2022-09-24T05:23:14.902Z,97633.64
2022-09-24T05:26:01.207Z,97634.55
2022-09-24T05:28:28.562Z,97640.11
2022-09-24T05:30:59.965Z,97639.16
2022-09-24T05:33:27.462Z,97644.76
2022-09-24T05:35:55.746Z,97645.20
2022-09-24T05:38:23.499Z,97644.33
2022-09-24T05:40:51.452Z,97645.73
2022-09-24T05:43:19.654Z,97647.69
2022-09-24T05:45:49.765Z,97650.00
2022-09-24T05:48:17.305Z,97650.20
2022-09-24T05:50:44.673Z,97653.50
2022-09-24T05:53:12.651Z,97655.59
2022-09-24T05:55:39.901Z,97651.95
2022-09-24T05:58:09.945Z,97652.02
2022-09-24T06:00:37.582Z,97653.92
2022-09-24T06:03:10.488Z,97657.02
2022-09-24T06:05:37.710Z,97654.84
2022-09-24T06:08:05.777Z,97662.23
2022-09-24T06:10:33.242Z,97663.11
2022-09-24T06:13:01.250Z,97663.03
2022-09-24T06:15:28.963Z,97665.33
2022-09-24T06:17:59.814Z,97666.05
2022-09-24T06:20:34.232Z,97662.85
2022-09-24T06:23:11.459Z,97659.91
2022-09-24T06:25:40.814Z,97664.22
2022-09-24T06:28:08.584Z,97659.27
2022-09-24T06:30:40.992Z,97662.70
2022-09-24T06:33:14.281Z,97670.52
2022-09-24T06:35:44.470Z,97668.33
2022-09-24T06:38:14.795Z,97670.33
2022-09-24T06:40:44.670Z,97676.98
2022-09-24T06:43:13.065Z,97679.19
2022-09-24T06:45:42.587Z,97678.07
2022-09-24T06:48:14.122Z,97676.63
2022-09-24T06:50:45.128Z,97674.27
2022-09-24T06:53:12.661Z,97676.77
2022-09-24T06:55:40.717Z,97677.17
2022-09-24T06:58:14.966Z,97681.93
2022-09-24T07:01:01.939Z,97686.09
2022-09-24T07:03:32.389Z,97692.86
2022-09-24T07:06:02.503Z,97691.41
2022-09-24T07:08:30.116Z,97694.48
2022-09-24T07:10:57.560Z,97696.20
2022-09-24T07:13:24.751Z,97698.67
2022-09-24T07:15:52.522Z,97700.48
2022-09-24T07:18:28.785Z,97698.80
2022-09-24T07:20:56.744Z,97700.01
2022-09-24T07:23:24.308Z,97698.85
2022-09-24T07:25:56.707Z,97702.59
2022-09-24T07:28:24.031Z,97703.61
2022-09-24T07:30:59.252Z,97708.58
2022-09-24T07:33:26.699Z,97710.45
2022-09-24T07:35:54.412Z,97713.34
2022-09-24T07:38:22.014Z,97709.93
2022-09-24T07:40:49.507Z,97712.08
2022-09-24T07:43:16.657Z,97716.11
2022-09-24T07:45:44.716Z,97713.42
2022-09-24T07:48:12.488Z,97717.92
2022-09-24T07:50:42.201Z,97716.61
2022-09-24T07:53:14.796Z,97710.83
2022-09-24T07:55:42.129Z,97707.66
2022-09-24T07:58:13.273Z,97705.34
2022-09-24T08:00:41.209Z,97705.55
2022-09-24T08:03:08.510Z,97709.13
2022-09-24T08:05:36.053Z,97711.55
2022-09-24T08:08:03.272Z,97707.02
2022-09-24T08:10:30.764Z,97707.48
2022-09-24T08:13:01.969Z,97707.55
2022-09-24T08:15:29.463Z,97705.24
2022-09-24T08:18:03.783Z,97706.80
2022-09-24T08:20:35.948Z,97706.16
2022-09-24T08:23:05.644Z,97707.07
2022-09-24T08:25:32.753Z,97702.58
2022-09-24T08:28:04.128Z,97705.60
2022-09-24T08:30:35.773Z,97707.15
2022-09-24T08:33:06.807Z,97708.66
2022-09-24T08:35:34.848Z,97706.05
2022-09-24T08:38:03.142Z,97710.00
2022-09-24T08:40:36.244Z,97705.13
2022-09-24T08:43:18.281Z,97705.89
2022-09-24T08:46:15.911Z,97707.17
2022-09-24T08:48:48.840Z,97707.13
2022-09-24T08:51:19.266Z,97699.33
2022-09-24T08:54:07.356Z,97706.52
2022-09-24T08:56:38.234Z,97702.58
2022-09-24T08:59:14.091Z,97699.58
2022-09-24T09:02:07.586Z,97708.09
2022-09-24T09:04:57.815Z,97705.70
2022-09-24T09:07:47.110Z,97704.42
2022-09-24T09:10:16.174Z,97698.38
2022-09-24T09:12:53.442Z,97696.88
2022-09-24T09:15:26.251Z,97700.34
2022-09-24T09:18:01.109Z,97693.20
2022-09-24T09:20:33.379Z,97697.26
2022-09-24T09:23:13.224Z,97701.41
2022-09-24T09:25:46.938Z,97699.14
2022-09-24T09:28:16.464Z,97696.39
2022-09-24T09:30:52.872Z,97692.44
2022-09-24T09:33:34.805Z,97688.05
2022-09-24T09:36:32.775Z,97685.52
2022-09-24T09:39:05.771Z,97682.84
2022-09-24T09:41:52.883Z,97683.70
2022-09-24T09:44:25.761Z,97687.38
2022-09-24T09:47:06.640Z,97690.38
2022-09-24T09:49:38.183Z,97695.92
2022-09-24T09:52:14.423Z,97698.20
2022-09-24T09:54:43.029Z,97699.63
2022-09-24T09:57:17.755Z,97694.06
2022-09-24T09:59:48.457Z,97690.41
2022-09-24T10:02:37.101Z,97692.52
2022-09-24T10:05:06.553Z,97687.96
2022-09-24T10:07:44.654Z,97689.58
2022-09-24T10:10:24.017Z,97685.59
2022-09-24T10:13:13.054Z,97690.73
2022-09-24T10:15:53.436Z,97690.13
2022-09-24T10:18:38.888Z,97693.06
2022-09-24T10:21:11.637Z,97694.42
2022-09-24T10:23:44.249Z,97696.45
2022-09-24T10:26:11.426Z,97689.45
2022-09-24T10:29:08.343Z,97691.37
2022-09-24T10:31:39.399Z,97688.75
2022-09-24T10:34:24.355Z,97688.91
2022-09-24T10:37:08.629Z,97687.80
2022-09-24T10:39:38.318Z,97691.10
2022-09-24T10:42:07.515Z,97685.80
2022-09-24T10:44:38.038Z,97687.86
2022-09-24T10:47:22.512Z,97686.68
2022-09-24T10:50:21.747Z,97681.14
2022-09-24T10:53:08.381Z,97681.76
2022-09-24T10:55:56.955Z,97679.08
2022-09-24T10:58:54.806Z,97678.95
2022-09-24T11:01:22.044Z,97677.44
2022-09-24T11:03:53.018Z,97677.41
2022-09-24T11:06:35.215Z,97684.10
2022-09-24T11:09:30.223Z,97680.37
2022-09-24T11:12:19.280Z,97680.96
2022-09-24T11:15:03.780Z,97683.58
2022-09-24T11:18:04.412Z,97684.02
2022-09-24T11:20:38.995Z,97683.20
2022-09-24T11:23:07.145Z,97676.77
2022-09-24T11:25:53.982Z,97672.53
2022-09-24T11:28:21.128Z,97665.73
2022-09-24T11:31:19.413Z,97664.01
2022-09-24T11:33:56.139Z,97660.11
2022-09-24T11:36:50.290Z,97660.64
2022-09-24T11:39:26.731Z,97657.17
2022-09-24T11:42:16.100Z,97653.04
2022-09-24T11:45:10.901Z,97650.73
2022-09-24T11:48:16.352Z,97648.45
2022-09-24T11:51:20.973Z,97647.29
2022-09-24T11:54:12.427Z,97648.77
2022-09-24T11:56:51.331Z,97655.45
2022-09-24T11:59:42.432Z,97653.66
2022-09-24T12:02:20.439Z,97656.38
2022-09-24T12:05:14.851Z,97645.46
2022-09-24T12:08:00.951Z,97644.42
2022-09-24T12:10:50.310Z,97639.67
2022-09-24T12:13:27.619Z,97642.04
2022-09-24T12:16:00.750Z,97638.80
2022-09-24T12:18:45.372Z,97638.20
2022-09-24T12:21:18.412Z,97635.84
2022-09-24T12:23:49.337Z,97641.13
2022-09-24T12:26:19.535Z,97648.77
2022-09-24T12:29:35.471Z,97648.88
2022-09-24T12:32:33.647Z,97641.87
2022-09-24T12:35:27.520Z,97637.90
2022-09-24T12:38:05.296Z,97633.63
2022-09-24T12:40:41.566Z,97631.27
2022-09-24T12:43:29.315Z,97628.02
2022-09-24T12:46:02.431Z,97624.39
2022-09-24T12:48:36.310Z,97623.52
2022-09-24T12:51:09.293Z,97625.30
2022-09-24T12:53:39.914Z,97620.05
2022-09-24T12:56:09.436Z,97614.11
2022-09-24T12:58:41.208Z,97618.14
2022-09-24T13:01:39.581Z,97619.83
2022-09-24T13:04:16.348Z,97622.98
2022-09-24T13:06:47.776Z,97621.38
2022-09-24T13:09:34.094Z,97618.97
2022-09-24T13:12:23.873Z,97607.54
2022-09-24T13:14:56.582Z,97606.08
2022-09-24T13:17:24.534Z,97600.67
2022-09-24T13:19:58.734Z,97601.02
2022-09-24T13:22:31.920Z,97601.83
2022-09-24T13:25:26.518Z,97595.64
2022-09-24T13:28:02.898Z,97591.10
2022-09-24T13:30:32.613Z,97595.73
2022-09-24T13:33:09.578Z,97588.59
2022-09-24T13:35:47.066Z,97583.69
2022-09-24T13:38:26.607Z,97583.95
2022-09-24T13:41:01.437Z,97581.59
2022-09-24T13:44:04.017Z,97580.19
2022-09-24T13:46:34.694Z,97584.45
2022-09-24T13:49:08.655Z,97585.77
2022-09-24T13:51:38.573Z,97586.89
2022-09-24T13:54:17.397Z,97580.44
2022-09-24T13:56:59.230Z,97583.72
2022-09-24T13:59:27.543Z,97581.37
2022-09-24T14:01:55.406Z,97582.41
2022-09-24T14:04:23.811Z,97575.58
2022-09-24T14:06:57.109Z,97564.65
2022-09-24T14:09:34.090Z,97562.37
2022-09-24T14:12:22.183Z,97565.16
2022-09-24T14:14:57.893Z,97571.34
2022-09-24T14:17:26.137Z,97567.71
2022-09-24T14:19:56.584Z,97570.34
2022-09-24T14:22:30.177Z,97574.23
2022-09-24T14:25:03.076Z,97575.37
2022-09-24T14:27:36.255Z,97569.02
2022-09-24T14:30:17.025Z,97568.70
2022-09-24T14:32:44.402Z,97569.92
2022-09-24T14:35:31.928Z,97566.87
2022-09-24T14:38:10.707Z,97572.52
2022-09-24T14:40:48.209Z,97571.34
2022-09-24T14:43:22.861Z,97573.49
2022-09-24T14:45:55.218Z,97576.77
2022-09-24T14:48:33.799Z,97575.05
2022-09-24T14:51:02.010Z,97577.15
2022-09-24T14:53:37.057Z,97570.59
2022-09-24T14:56:32.259Z,97563.06
2022-09-24T14:59:00.355Z,97559.30
2022-09-24T15:01:34.123Z,97564.80
2022-09-24T15:04:15.553Z,97570.14
2022-09-24T15:06:47.559Z,97569.19
2022-09-24T15:09:29.369Z,97558.59
2022-09-24T15:12:30.413Z,97562.38
2022-09-24T15:15:26.442Z,97567.89
2022-09-24T15:17:54.098Z,97564.60
2022-09-24T15:20:21.972Z,97564.80
2022-09-24T15:22:49.733Z,97565.86
2022-09-24T15:25:17.286Z,97569.00
2022-09-24T15:27:45.201Z,97572.55
2022-09-24T15:30:19.336Z,97574.61
2022-09-24T15:32:49.641Z,97571.69
2022-09-24T15:35:17.048Z,97569.69
2022-09-24T15:37:44.918Z,97566.27
2022-09-24T15:40:36.377Z,97562.01
2022-09-24T15:43:08.913Z,97561.23
2022-09-24T15:45:36.474Z,97567.30
2022-09-24T15:48:04.044Z,97564.94
2022-09-24T15:50:31.241Z,97571.63
2022-09-24T15:53:00.589Z,97570.44
2022-09-24T15:55:28.756Z,97563.66
2022-09-24T15:57:56.001Z,97564.31
2022-09-24T16:00:24.799Z,97564.34
2022-09-24T16:02:56.711Z,97563.82
2022-09-24T16:05:24.831Z,97559.98
2022-09-24T16:07:52.088Z,97554.97
2022-09-24T16:10:20.155Z,97554.71
2022-09-24T16:12:47.814Z,97550.70
2022-09-24T16:15:15.984Z,97544.16
2022-09-24T16:17:43.955Z,97553.22
2022-09-24T16:20:11.210Z,97558.60
2022-09-24T16:22:38.466Z,97563.30
2022-09-24T16:25:06.434Z,97565.86
2022-09-24T16:27:34.911Z,97566.77
2022-09-24T16:30:03.593Z,97564.86
2022-09-24T16:32:31.459Z,97568.65
2022-09-24T16:34:59.430Z,97565.94
2022-09-24T16:37:28.335Z,97568.19
2022-09-24T16:39:55.674Z,97567.13
2022-09-24T16:42:25.793Z,97567.14
2022-09-24T16:44:52.734Z,97566.48
2022-09-24T16:47:20.297Z,97565.14
2022-09-24T16:49:47.854Z,97556.02
2022-09-24T16:52:15.107Z,97556.91
2022-09-24T16:54:42.357Z,97553.75
2022-09-24T16:57:09.508Z,97548.07
2022-09-24T16:59:36.966Z,97553.86
2022-09-24T17:02:04.296Z,97559.65
2022-09-24T17:04:34.223Z,97560.59
2022-09-24T17:07:01.692Z,97559.05
2022-09-24T17:09:47.885Z,97563.93
2022-09-24T17:12:15.300Z,97566.66
2022-09-24T17:14:42.605Z,97563.35
2022-09-24T17:17:10.995Z,97566.02
2022-09-24T17:19:38.226Z,97564.77
2022-09-24T17:22:10.706Z,97563.33
2022-09-24T17:24:39.590Z,97566.42
2022-09-24T17:27:07.664Z,97564.83
2022-09-24T17:29:34.915Z,97565.98
2022-09-24T17:32:02.962Z,97571.33
2022-09-24T17:34:30.147Z,97572.98
2022-09-24T17:36:59.305Z,97572.54
2022-09-24T17:39:27.605Z,97569.70
2022-09-24T17:41:55.475Z,97568.94
2022-09-24T17:44:22.620Z,97571.80
2022-09-24T17:46:49.719Z,97568.80
2022-09-24T17:49:17.125Z,97568.64
2022-09-24T17:51:47.148Z,97577.64
2022-09-24T17:54:15.522Z,97580.67
2022-09-24T17:56:42.641Z,97579.46
2022-09-24T17:59:11.737Z,97579.08
2022-09-24T18:01:41.347Z,97578.92
2022-09-24T18:04:15.487Z,97574.16
2022-09-24T18:06:44.475Z,97574.39
2022-09-24T18:09:13.883Z,97576.69
2022-09-24T18:11:46.504Z,97576.23
2022-09-24T18:14:19.798Z,97577.73
2022-09-24T18:16:48.981Z,97578.14
2022-09-24T18:19:17.512Z,97579.02
2022-09-24T18:21:46.125Z,97581.55
2022-09-24T18:24:14.080Z,97583.05
2022-09-24T18:26:41.232Z,97584.98
2022-09-24T18:29:17.186Z,97585.36
2022-09-24T18:31:45.127Z,97588.08
2022-09-24T18:34:15.273Z,97586.71
2022-09-24T18:36:44.173Z,97591.34
2022-09-24T18:39:14.753Z,97594.88
2022-09-24T18:41:43.910Z,97597.55
2022-09-24T18:44:12.659Z,97602.27
2022-09-24T18:46:45.469Z,97604.03
2022-09-24T18:49:14.068Z,97601.36
2022-09-24T18:51:42.331Z,97598.19
2022-09-24T18:54:14.487Z,97595.77
2022-09-24T18:56:43.074Z,97603.91
2022-09-24T18:59:16.715Z,97604.60
2022-09-24T19:01:46.494Z,97607.23
2022-09-24T19:04:14.760Z,97610.49
2022-09-24T19:06:43.707Z,97613.16
2022-09-24T19:09:13.259Z,97616.73
2022-09-24T19:11:41.430Z,97619.30
2022-09-24T19:14:11.099Z,97625.25
2022-09-24T19:16:38.804Z,97617.92
2022-09-24T19:19:06.671Z,97616.13
2022-09-24T19:21:33.830Z,97617.55
2022-09-24T19:24:01.483Z,97615.73
2022-09-24T19:26:31.533Z,97615.79
2022-09-24T19:28:58.960Z,97621.03
2022-09-24T19:31:31.998Z,97620.42
2022-09-24T19:34:04.108Z,97619.45
2022-09-24T19:36:37.398Z,97619.95
2022-09-24T19:39:10.266Z,97625.34
2022-09-24T19:41:37.955Z,97629.48
2022-09-24T19:44:08.781Z,97629.81
2022-09-24T19:46:38.035Z,97630.58
2022-09-24T19:49:06.663Z,97627.60
2022-09-24T19:51:35.144Z,97628.42
2022-09-24T19:54:08.540Z,97628.55
2022-09-24T19:56:37.024Z,97627.45
2022-09-24T19:59:05.630Z,97628.89
2022-09-24T20:01:33.662Z,97632.87
2022-09-24T20:04:05.158Z,97633.20
2022-09-24T20:06:34.732Z,97633.35
2022-09-24T20:09:02.290Z,97637.27
2022-09-24T20:11:31.883Z,97640.83
2022-09-24T20:13:59.990Z,97636.65
2022-09-24T20:16:32.244Z,97635.91
2022-09-24T20:19:01.243Z,97637.42
2022-09-24T20:21:33.965Z,97641.66
2022-09-24T20:24:03.212Z,97639.15
2022-09-24T20:26:49.203Z,97642.98
2022-09-24T20:29:19.424Z,97639.63
2022-09-24T20:31:51.445Z,97649.42
2022-09-24T20:34:20.849Z,97644.52
2022-09-24T20:36:48.660Z,97640.42
2022-09-24T20:39:16.112Z,97641.24
2022-09-24T20:41:43.795Z,97646.21
2022-09-24T20:44:11.192Z,97643.24
2022-09-24T20:46:38.987Z,97641.36
2022-09-24T20:49:06.355Z,97640.48
2022-09-24T20:51:33.742Z,97640.64
2022-09-24T20:54:01.474Z,97641.13
2022-09-24T20:56:30.152Z,97641.34
2022-09-24T20:58:58.435Z,97642.41
2022-09-24T21:01:25.749Z,97640.84
2022-09-24T21:03:53.577Z,97639.16
2022-09-24T21:06:24.488Z,97638.66
2022-09-24T21:08:52.562Z,97638.66
2022-09-24T21:11:22.439Z,97634.70
2022-09-24T21:13:52.187Z,97637.23
2022-09-24T21:16:22.090Z,97634.23
2022-09-24T21:18:51.840Z,97631.39
2022-09-24T21:21:26.041Z,97626.98
2022-09-24T21:23:54.603Z,97631.02
2022-09-24T21:26:33.227Z,97632.34
2022-09-24T21:29:03.133Z,97628.77
2022-09-24T21:31:32.959Z,97627.66
2022-09-24T21:34:00.920Z,97624.16
2022-09-24T21:36:31.253Z,97618.13
2022-09-24T21:38:59.726Z,97617.66
2022-09-24T21:41:30.724Z,97617.51
2022-09-24T21:43:58.733Z,97619.00
2022-09-24T21:46:28.012Z,97617.72
2022-09-24T21:48:55.804Z,97618.52
2022-09-24T21:51:25.212Z,97622.40
2022-09-24T21:54:00.069Z,97621.77
2022-09-24T21:56:29.230Z,97615.13
2022-09-24T21:58:57.303Z,97613.16
2022-09-24T22:01:28.327Z,97610.83
2022-09-24T22:04:00.778Z,97615.84
2022-09-24T22:06:29.806Z,97613.14
2022-09-24T22:09:02.178Z,97612.64
2022-09-24T22:11:30.974Z,97611.61
2022-09-24T22:14:02.394Z,97605.04
2022-09-24T22:16:35.526Z,97601.98
2022-09-24T22:19:05.321Z,97602.23
2022-09-24T22:21:33.908Z,97600.11
2022-09-24T22:24:02.780Z,97599.76
2022-09-24T22:26:30.560Z,97595.65
2022-09-24T22:28:58.928Z,97597.33
2022-09-24T22:31:27.524Z,97605.84
2022-09-24T22:34:13.802Z,97611.98
2022-09-24T22:36:41.287Z,97611.05
2022-09-24T22:39:09.387Z,97608.16
2022-09-24T22:41:39.621Z,97608.41
2022-09-24T22:44:07.250Z,97614.21
2022-09-24T22:46:37.829Z,97616.52
2022-09-24T22:49:07.777Z,97617.35
2022-09-24T22:51:37.995Z,97617.45
2022-09-24T22:54:06.540Z,97615.90
2022-09-24T22:56:35.573Z,97610.52
2022-09-24T22:59:04.264Z,97623.31
2022-09-24T23:01:39.185Z,97626.53
2022-09-24T23:04:07.414Z,97631.60
2022-09-24T23:06:35.256Z,97635.79
2022-09-24T23:09:03.816Z,97636.04
2022-09-24T23:11:34.054Z,97638.52
2022-09-24T23:14:03.720Z,97635.95
2022-09-24T23:16:37.371Z,97635.39
2022-09-24T23:19:12.080Z,97632.80
2022-09-24T23:21:40.149Z,97631.40
2022-09-24T23:24:14.882Z,97631.10
2022-09-24T23:26:43.978Z,97632.17
2022-09-24T23:29:12.649Z,97628.46
2022-09-24T23:31:40.624Z,97630.73
2022-09-24T23:34:12.403Z,97629.05
2022-09-24T23:36:39.961Z,97626.88
2022-09-24T23:39:08.721Z,97626.14
2022-09-24T23:41:37.710Z,97620.23
2022-09-24T23:44:07.061Z,97619.19
2022-09-24T23:46:35.270Z,97621.45
2022-09-24T23:49:03.264Z,97628.52
2022-09-24T23:51:32.390Z,97627.33
2022-09-24T23:54:00.730Z,97626.98
2022-09-24T23:56:30.554Z,97627.89
2022-09-24T23:58:59.651Z,97631.17
